Time;durP1;ratioP1;P1;durP2;ratioP2;P2;SDS_P1;SDS_P2;PMS_P1;PMS_P2;Temp;Humidity;BMP_temperature;BMP_pressure;BME280_temperature;BME280_humidity;BME280_pressure;Samples;Min_cycle;Max_cycle;Signal;HPM_P1;HPM_P2
2023/06/04 00:02:23;;;;;;;;;;;11.60;99.90;;;;;;4915765;29;20071;-80
2023/06/04 00:04:48;;;;;;;;;;;11.60;99.90;;;;;;4902098;29;19983;-80
2023/06/04 00:07:14;;;;;;;;;;;11.60;99.90;;;;;;4933619;29;19934;-80
2023/06/04 00:09:39;;;;;;;;;;;11.60;99.90;;;;;;4897268;29;20429;-80
2023/06/04 00:12:07;;;;;;;;;;;11.60;99.90;;;;;;4938818;29;19927;-80
2023/06/04 00:14:33;;;;;;;;;;;11.60;99.90;;;;;;4879199;29;19932;-80
2023/06/04 00:16:59;;;;;;;;;;;11.50;99.90;;;;;;4901073;29;19963;-81
2023/06/04 00:19:24;;;;;;;;;;;11.50;99.90;;;;;;4896328;29;19927;-81
2023/06/04 00:21:50;;;;;;;;;;;11.50;99.90;;;;;;4909426;29;20334;-81
2023/06/04 00:24:16;;;;;;;;;;;11.40;99.90;;;;;;4893319;29;19934;-81
2023/06/04 00:26:42;;;;;;;;;;;11.80;99.90;;;;;;4891782;29;19967;-81
2023/06/04 00:29:07;;;;;;;;;;;11.30;99.90;;;;;;4909728;29;19951;-81
2023/06/04 00:31:33;;;;;;;;;;;11.30;99.90;;;;;;4894160;29;19931;-81
2023/06/04 00:33:58;;;;;;;;;;;11.30;99.90;;;;;;4908367;29;19927;-80
2023/06/04 00:36:24;;;;;;;;;;;11.30;99.90;;;;;;4892133;29;19927;-81
2023/06/04 00:38:49;;;;;;;;;;;11.30;99.90;;;;;;4905389;29;19927;-81
2023/06/04 00:41:15;;;;;;;;;;;11.30;99.90;;;;;;4907306;29;19991;-81
2023/06/04 00:43:45;;;;;;;;;;;11.30;99.90;;;;;;4891981;29;19948;-81
2023/06/04 00:46:17;;;;;;;;;;;11.20;99.90;;;;;;4907971;29;19991;-81
2023/06/04 00:48:43;;;;;;;;;;;11.20;99.90;;;;;;4899793;29;19963;-81
2023/06/04 00:51:09;;;;;;;;;;;11.20;99.90;;;;;;4902705;29;19955;-81
2023/06/04 00:53:35;;;;;;;;;;;11.20;99.90;;;;;;4902451;29;19991;-80
2023/06/04 00:56:00;;;;;;;;;;;11.20;99.90;;;;;;4910799;29;19938;-81
2023/06/04 00:58:26;;;;;;;;;;;11.10;99.90;;;;;;4908451;29;19935;-82
2023/06/04 01:00:54;;;;;;;;;;;11.20;99.90;;;;;;4888570;29;19938;-81
2023/06/04 01:03:23;;;;;;;;;;;11.10;99.90;;;;;;4895011;29;19933;-82
2023/06/04 01:06:08;;;;;;;;;;;11.20;99.90;;;;;;4901280;29;19928;-81
2023/06/04 01:08:35;;;;;;;;;;;11.10;99.90;;;;;;4907545;29;19926;-82
2023/06/04 01:11:01;;;;;;;;;;;11.10;99.90;;;;;;4910930;29;20013;-81
2023/06/04 01:13:27;;;;;;;;;;;11.10;99.90;;;;;;4925172;29;19934;-81
2023/06/04 01:15:52;;;;;;;;;;;11.10;99.90;;;;;;4896580;29;20341;-82
2023/06/04 01:18:27;;;;;;;;;;;11.00;99.90;;;;;;4911159;29;19927;-81
2023/06/04 01:20:56;;;;;;;;;;;11.00;99.90;;;;;;4910704;29;19938;-81
2023/06/04 01:23:33;;;;;;;;;;;11.00;99.90;;;;;;4912163;29;20354;-81
2023/06/04 01:25:59;;;;;;;;;;;11.00;99.90;;;;;;4910074;29;19934;-81
2023/06/04 01:28:26;;;;;;;;;;;11.60;99.90;;;;;;4892602;29;19960;-81
2023/06/04 01:30:52;;;;;;;;;;;10.90;99.90;;;;;;4898388;29;19927;-80
2023/06/04 01:33:18;;;;;;;;;;;10.90;99.90;;;;;;4909658;29;19961;-81
2023/06/04 01:35:44;;;;;;;;;;;10.90;99.90;;;;;;4917497;29;20389;-81
2023/06/04 01:38:10;;;;;;;;;;;10.90;99.90;;;;;;4899004;29;19954;-81
2023/06/04 01:40:36;;;;;;;;;;;10.80;99.90;;;;;;4893358;29;19964;-81
2023/06/04 01:43:02;;;;;;;;;;;10.80;99.90;;;;;;4912170;29;19924;-81
2023/06/04 01:45:27;;;;;;;;;;;10.80;99.90;;;;;;4926650;29;19935;-80
2023/06/04 01:47:53;;;;;;;;;;;10.70;99.90;;;;;;4901239;29;20361;-81
2023/06/04 01:50:19;;;;;;;;;;;10.80;99.90;;;;;;4888868;29;19967;-81
2023/06/04 01:52:45;;;;;;;;;;;10.70;99.90;;;;;;4913665;29;19934;-81
2023/06/04 01:55:14;;;;;;;;;;;10.70;99.90;;;;;;4928660;29;19931;-81
2023/06/04 01:57:43;;;;;;;;;;;10.70;99.90;;;;;;4911819;29;20386;-81
2023/06/04 02:00:10;;;;;;;;;;;10.70;99.90;;;;;;4908344;29;20344;-81
2023/06/04 02:02:36;;;;;;;;;;;10.70;99.90;;;;;;4926559;29;19927;-82
2023/06/04 02:05:08;;;;;;;;;;;10.70;99.90;;;;;;4908623;29;20034;-81
2023/06/04 02:07:34;;;;;;;;;;;10.70;99.90;;;;;;4926626;29;19983;-81
2023/06/04 02:10:00;;;;;;;;;;;10.70;99.90;;;;;;4903567;29;20495;-82
2023/06/04 02:12:25;;;;;;;;;;;10.70;99.90;;;;;;4912397;29;19939;-82
2023/06/04 02:14:51;;;;;;;;;;;11.00;99.90;;;;;;4894467;29;19927;-81
2023/06/04 02:17:16;;;;;;;;;;;10.80;99.90;;;;;;4905372;29;19927;-82
2023/06/04 02:19:49;;;;;;;;;;;10.70;99.90;;;;;;4922904;29;20565;-81
2023/06/04 02:22:16;;;;;;;;;;;10.60;99.90;;;;;;4920805;29;19970;-81
2023/06/04 02:24:42;;;;;;;;;;;10.60;99.90;;;;;;4903099;29;20396;-82
2023/06/04 02:27:08;;;;;;;;;;;10.60;99.90;;;;;;4907106;29;19927;-82
2023/06/04 02:29:33;;;;;;;;;;;11.10;99.90;;;;;;4920122;29;19938;-82
2023/06/04 02:31:59;;;;;;;;;;;10.60;99.90;;;;;;4911251;29;19927;-82
2023/06/04 02:34:25;;;;;;;;;;;10.60;99.90;;;;;;4910773;29;19950;-82
2023/06/04 02:36:50;;;;;;;;;;;10.60;99.90;;;;;;4910249;29;19933;-82
2023/06/04 02:39:19;;;;;;;;;;;10.60;99.90;;;;;;4900550;29;19927;-82
2023/06/04 02:41:45;;;;;;;;;;;10.60;99.90;;;;;;4912355;29;20015;-82
2023/06/04 02:44:10;;;;;;;;;;;10.60;99.90;;;;;;4897784;29;19963;-82
2023/06/04 02:46:36;;;;;;;;;;;10.60;99.90;;;;;;4897221;29;19929;-81
2023/06/04 02:49:02;;;;;;;;;;;10.60;99.90;;;;;;4895376;29;19927;-82
2023/06/04 02:51:28;;;;;;;;;;;10.60;99.90;;;;;;4897847;29;19927;-81
2023/06/04 02:53:54;;;;;;;;;;;10.60;99.90;;;;;;4921161;29;19927;-81
2023/06/04 02:56:20;;;;;;;;;;;10.50;99.90;;;;;;4903848;29;20384;-80
2023/06/04 02:58:55;;;;;;;;;;;10.60;99.90;;;;;;4903270;29;19940;-80
2023/06/04 03:01:25;;;;;;;;;;;10.50;99.90;;;;;;4917109;29;19927;-81
2023/06/04 03:03:51;;;;;;;;;;;10.60;99.90;;;;;;4934272;29;19970;-81
2023/06/04 03:06:20;;;;;;;;;;;10.50;99.90;;;;;;4914360;29;19934;-81
2023/06/04 03:08:45;;;;;;;;;;;10.50;99.90;;;;;;4891980;29;19934;-81
2023/06/04 03:11:11;;;;;;;;;;;10.50;99.90;;;;;;4909915;29;19923;-81
2023/06/04 03:13:37;;;;;;;;;;;10.50;99.90;;;;;;4911814;29;20026;-81
2023/06/04 03:16:03;;;;;;;;;;;10.50;99.90;;;;;;4908624;29;20002;-81
2023/06/04 03:18:29;;;;;;;;;;;10.40;99.90;;;;;;4890654;29;19970;-81
2023/06/04 03:20:55;;;;;;;;;;;10.40;99.90;;;;;;4907993;29;19938;-81
2023/06/04 03:23:21;;;;;;;;;;;10.40;99.90;;;;;;4893437;29;19927;-81
2023/06/04 03:25:47;;;;;;;;;;;10.60;99.90;;;;;;4908572;29;20005;-81
2023/06/04 03:28:12;;;;;;;;;;;10.40;99.90;;;;;;4906894;29;20400;-82
2023/06/04 03:30:38;;;;;;;;;;;10.40;99.90;;;;;;4899191;29;19927;-81
2023/06/04 03:33:04;;;;;;;;;;;10.40;99.90;;;;;;4892897;29;19979;-81
2023/06/04 03:35:30;;;;;;;;;;;10.40;99.90;;;;;;4893924;29;19923;-81
2023/06/04 03:37:55;;;;;;;;;;;10.30;99.90;;;;;;4892796;29;19931;-81
2023/06/04 03:40:21;;;;;;;;;;;10.30;99.90;;;;;;4895140;29;19955;-81
2023/06/04 03:42:47;;;;;;;;;;;10.30;99.90;;;;;;4910832;29;19962;-81
2023/06/04 03:45:12;;;;;;;;;;;10.30;99.90;;;;;;4908161;29;19931;-80
2023/06/04 03:47:39;;;;;;;;;;;10.30;99.90;;;;;;4892206;29;20058;-80
2023/06/04 03:50:05;;;;;;;;;;;10.30;99.90;;;;;;4910771;29;19927;-81
2023/06/04 03:52:31;;;;;;;;;;;10.30;99.90;;;;;;4922542;29;19927;-81
2023/06/04 03:54:56;;;;;;;;;;;10.30;99.90;;;;;;4915078;29;19931;-81
2023/06/04 03:57:22;;;;;;;;;;;10.30;99.90;;;;;;4904600;29;19982;-81
2023/06/04 03:59:51;;;;;;;;;;;10.30;99.90;;;;;;4920315;29;19927;-82
2023/06/04 04:02:19;;;;;;;;;;;10.30;99.90;;;;;;4903860;29;20010;-81
2023/06/04 04:04:45;;;;;;;;;;;10.40;99.90;;;;;;4921025;29;19915;-82
2023/06/04 04:07:11;;;;;;;;;;;10.40;99.90;;;;;;4921786;29;19931;-81
2023/06/04 04:09:37;;;;;;;;;;;10.40;99.90;;;;;;4941181;29;19927;-82
2023/06/04 04:12:03;;;;;;;;;;;10.40;99.90;;;;;;4956413;29;19958;-82
2023/06/04 04:14:31;;;;;;;;;;;10.50;99.90;;;;;;4921414;29;19927;-82
2023/06/04 04:17:08;;;;;;;;;;;10.40;99.90;;;;;;4928757;29;19995;-82
2023/06/04 04:19:34;;;;;;;;;;;10.80;99.90;;;;;;4886715;29;19932;-82
2023/06/04 04:22:09;;;;;;;;;;;10.70;99.90;;;;;;4918481;29;19933;-82
2023/06/04 04:24:39;;;;;;;;;;;10.50;99.90;;;;;;4914183;29;19927;-82
2023/06/04 04:27:05;;;;;;;;;;;10.50;99.90;;;;;;4898271;29;20011;-82
2023/06/04 04:29:35;;;;;;;;;;;10.50;99.90;;;;;;4911973;29;19927;-82
2023/06/04 04:32:10;;;;;;;;;;;10.60;99.90;;;;;;4910472;29;19928;-82
2023/06/04 04:34:40;;;;;;;;;;;10.60;99.90;;;;;;4894374;29;19935;-82
2023/06/04 04:37:09;;;;;;;;;;;10.70;99.90;;;;;;4899946;29;19998;-82
2023/06/04 04:39:41;;;;;;;;;;;10.50;99.90;;;;;;4901255;29;19959;-82
2023/06/04 04:42:12;;;;;;;;;;;10.70;99.90;;;;;;4901318;29;19979;-82
2023/06/04 04:44:38;;;;;;;;;;;10.00;99.90;;;;;;4897865;29;19952;-82
2023/06/04 04:47:04;;;;;;;;;;;10.80;99.90;;;;;;4914879;29;19955;-82
2023/06/04 04:49:30;;;;;;;;;;;10.90;99.90;;;;;;4897429;29;19957;-83
2023/06/04 04:51:56;;;;;;;;;;;11.80;99.90;;;;;;4914925;29;19990;-83
2023/06/04 04:54:21;;;;;;;;;;;11.10;99.90;;;;;;4895993;29;19938;-82
2023/06/04 04:56:47;;;;;;;;;;;11.10;99.90;;;;;;4897885;29;19927;-82
2023/06/04 04:59:15;;;;;;;;;;;11.20;99.90;;;;;;4912888;29;19991;-81
2023/06/04 05:01:41;;;;;;;;;;;11.20;99.90;;;;;;4925997;29;19927;-82
2023/06/04 05:04:07;;;;;;;;;;;10.90;99.90;;;;;;4898154;29;20282;-81
2023/06/04 05:06:33;;;;;;;;;;;11.50;99.90;;;;;;4916306;29;19942;-82
2023/06/04 05:08:59;;;;;;;;;;;11.00;99.90;;;;;;4936725;29;19939;-82
2023/06/04 05:11:27;;;;;;;;;;;11.70;99.90;;;;;;4903442;29;19939;-81
2023/06/04 05:13:53;;;;;;;;;;;11.80;99.90;;;;;;4892088;29;20271;-84
2023/06/04 05:16:20;;;;;;;;;;;12.70;99.90;;;;;;4879557;29;19991;-83
2023/06/04 05:18:45;;;;;;;;;;;12.10;99.90;;;;;;4907031;29;19934;-82
2023/06/04 05:21:14;;;;;;;;;;;12.20;99.90;;;;;;4909018;29;19927;-82
2023/06/04 05:23:39;;;;;;;;;;;12.90;99.90;;;;;;4921683;29;19943;-81
2023/06/04 05:26:05;;;;;;;;;;;12.40;99.90;;;;;;4894305;29;20428;-81
2023/06/04 05:28:33;;;;;;;;;;;12.80;99.90;;;;;;4902106;29;19950;-80
2023/06/04 05:30:59;;;;;;;;;;;12.80;99.90;;;;;;4897404;29;19927;-81
2023/06/04 05:33:28;;;;;;;;;;;12.90;99.90;;;;;;4911430;29;19934;-81
2023/06/04 05:35:54;;;;;;;;;;;12.90;99.90;;;;;;4902642;29;19993;-83
2023/06/04 05:38:20;;;;;;;;;;;13.60;99.90;;;;;;4894284;29;19934;-82
2023/06/04 05:40:46;;;;;;;;;;;13.10;99.90;;;;;;4893815;29;19928;-81
2023/06/04 05:43:11;;;;;;;;;;;13.20;99.90;;;;;;4897014;29;19930;-81
2023/06/04 05:45:37;;;;;;;;;;;13.30;99.90;;;;;;4898406;29;19966;-84
2023/06/04 05:48:03;;;;;;;;;;;13.50;99.90;;;;;;4927464;29;20428;-83
2023/06/04 05:50:29;;;;;;;;;;;13.60;99.90;;;;;;4906144;29;19982;-81
2023/06/04 05:52:54;;;;;;;;;;;13.80;99.90;;;;;;4923194;29;20022;-81
2023/06/04 05:55:21;;;;;;;;;;;14.10;99.90;;;;;;4913792;29;19994;-83
2023/06/04 05:57:46;;;;;;;;;;;14.50;99.90;;;;;;4895507;29;19987;-84
2023/06/04 06:00:13;;;;;;;;;;;14.70;99.90;;;;;;4912676;29;19938;-83
2023/06/04 06:02:39;;;;;;;;;;;15.00;99.90;;;;;;4910806;29;19930;-82
2023/06/04 06:05:06;;;;;;;;;;;15.20;99.90;;;;;;4904821;29;20441;-82
2023/06/04 06:07:32;;;;;;;;;;;15.30;99.90;;;;;;4899266;29;19927;-82
2023/06/04 06:09:57;;;;;;;;;;;15.30;99.90;;;;;;4893284;29;19938;-80
2023/06/04 06:12:23;;;;;;;;;;;15.60;99.90;;;;;;4895564;29;19983;-80
2023/06/04 06:14:49;;;;;;;;;;;15.60;99.90;;;;;;4910389;29;19927;-81
2023/06/04 06:17:15;;;;;;;;;;;15.80;99.90;;;;;;4898581;29;20014;-81
2023/06/04 06:19:40;;;;;;;;;;;15.50;99.90;;;;;;4927143;29;20353;-82
2023/06/04 06:22:06;;;;;;;;;;;15.60;99.90;;;;;;4892882;29;19937;-81
2023/06/04 06:24:32;;;;;;;;;;;15.10;99.90;;;;;;4925199;29;19931;-81
2023/06/04 06:26:58;;;;;;;;;;;14.70;99.90;;;;;;4912026;29;19928;-81
2023/06/04 06:29:23;;;;;;;;;;;14.70;99.90;;;;;;4901993;29;19937;-81
2023/06/04 06:31:49;;;;;;;;;;;15.00;99.90;;;;;;4915622;29;19930;-83
2023/06/04 06:34:14;;;;;;;;;;;15.10;99.90;;;;;;4916557;29;20420;-81
2023/06/04 06:36:40;;;;;;;;;;;15.10;99.90;;;;;;4924490;29;20001;-82
2023/06/04 06:39:06;;;;;;;;;;;15.40;99.90;;;;;;4924490;29;20354;-81
2023/06/04 06:41:32;;;;;;;;;;;15.10;99.90;;;;;;4896732;29;20378;-81
2023/06/04 06:43:58;;;;;;;;;;;15.00;99.90;;;;;;4924495;29;20028;-81
2023/06/04 06:46:23;;;;;;;;;;;15.10;99.90;;;;;;4935588;29;19927;-81
2023/06/04 06:48:49;;;;;;;;;;;15.20;99.90;;;;;;4936667;29;19927;-81
2023/06/04 06:51:14;;;;;;;;;;;15.20;99.90;;;;;;4895914;29;19951;-83
2023/06/04 06:53:40;;;;;;;;;;;15.20;99.90;;;;;;4924845;29;19923;-84
2023/06/04 06:56:06;;;;;;;;;;;15.20;99.90;;;;;;4937760;29;19942;-80
2023/06/04 06:58:32;;;;;;;;;;;15.20;99.90;;;;;;4909970;29;20393;-80
2023/06/04 07:00:57;;;;;;;;;;;15.20;99.90;;;;;;4892529;29;19988;-78
2023/06/04 07:03:23;;;;;;;;;;;15.30;99.90;;;;;;4901862;29;19935;-81
2023/06/04 07:05:48;;;;;;;;;;;15.50;99.90;;;;;;4911630;29;19928;-79
2023/06/04 07:08:14;;;;;;;;;;;15.60;99.90;;;;;;4918285;29;19927;-79
2023/06/04 07:10:40;;;;;;;;;;;15.80;99.90;;;;;;4898398;29;19926;-79
2023/06/04 07:13:05;;;;;;;;;;;15.80;99.90;;;;;;4910779;29;20327;-78
2023/06/04 07:15:33;;;;;;;;;;;15.80;99.90;;;;;;4898256;29;20458;-81
2023/06/04 07:17:59;;;;;;;;;;;16.00;99.90;;;;;;4922323;29;19930;-80
2023/06/04 07:20:24;;;;;;;;;;;16.10;99.90;;;;;;4905097;29;19934;-79
2023/06/04 07:22:50;;;;;;;;;;;16.40;99.90;;;;;;4949388;29;20381;-79
2023/06/04 07:25:16;;;;;;;;;;;16.10;99.90;;;;;;4906999;29;19928;-80
2023/06/04 07:27:41;;;;;;;;;;;16.20;99.90;;;;;;4895686;29;19951;-79
2023/06/04 07:30:07;;;;;;;;;;;16.30;99.90;;;;;;4908104;29;19927;-82
2023/06/04 07:32:33;;;;;;;;;;;16.40;99.90;;;;;;4915576;29;19931;-83
2023/06/04 07:34:58;;;;;;;;;;;16.40;99.90;;;;;;4902971;29;19934;-83
2023/06/04 07:37:27;;;;;;;;;;;16.30;99.90;;;;;;4905128;29;19942;-80
2023/06/04 07:39:52;;;;;;;;;;;16.40;99.90;;;;;;4910810;29;19927;-82
2023/06/04 07:42:18;;;;;;;;;;;16.50;99.90;;;;;;4912327;29;19939;-81
2023/06/04 07:44:44;;;;;;;;;;;16.60;99.90;;;;;;4915644;29;19942;-81
2023/06/04 07:47:12;;;;;;;;;;;16.70;99.90;;;;;;4899791;29;19927;-81
2023/06/04 07:49:41;;;;;;;;;;;16.70;99.90;;;;;;4914420;29;19963;-81
2023/06/04 07:52:07;;;;;;;;;;;16.70;99.90;;;;;;4912171;29;19927;-82
2023/06/04 07:54:33;;;;;;;;;;;16.80;99.90;;;;;;4901021;29;19942;-81
2023/06/04 07:56:59;;;;;;;;;;;16.90;99.90;;;;;;4913201;29;19927;-81
2023/06/04 07:59:24;;;;;;;;;;;17.10;99.90;;;;;;4898645;29;19933;-82
2023/06/04 08:01:53;;;;;;;;;;;17.10;99.90;;;;;;4899028;29;19927;-80
2023/06/04 08:04:19;;;;;;;;;;;17.10;99.90;;;;;;4912972;29;19927;-81
2023/06/04 08:06:45;;;;;;;;;;;17.10;99.90;;;;;;4915505;29;19927;-80
2023/06/04 08:09:11;;;;;;;;;;;17.00;99.90;;;;;;4919470;29;19919;-82
2023/06/04 08:11:37;;;;;;;;;;;17.10;99.90;;;;;;4937233;29;20010;-80
2023/06/04 08:14:05;;;;;;;;;;;17.10;99.90;;;;;;4900240;29;19935;-82
2023/06/04 08:16:32;;;;;;;;;;;17.10;99.90;;;;;;4905878;29;19954;-80
2023/06/04 08:18:58;;;;;;;;;;;17.20;99.90;;;;;;4925963;29;19982;-81
2023/06/04 08:21:27;;;;;;;;;;;17.30;99.90;;;;;;4899016;29;19931;-79
2023/06/04 08:23:53;;;;;;;;;;;17.30;99.90;;;;;;4898141;29;19928;-81
2023/06/04 08:26:19;;;;;;;;;;;17.40;99.90;;;;;;4892513;29;19951;-79
2023/06/04 08:28:47;;;;;;;;;;;17.50;99.90;;;;;;4909932;29;20468;-81
2023/06/04 08:31:13;;;;;;;;;;;17.50;99.90;;;;;;4931892;29;19931;-80
2023/06/04 08:33:39;;;;;;;;;;;17.60;99.90;;;;;;4907150;29;19991;-80
2023/06/04 08:36:04;;;;;;;;;;;17.50;99.90;;;;;;4909216;29;19955;-81
2023/06/04 08:38:30;;;;;;;;;;;17.60;99.90;;;;;;4904307;29;19959;-81
2023/06/04 08:41:02;;;;;;;;;;;17.60;99.90;;;;;;4902885;29;19931;-82
2023/06/04 08:43:29;;;;;;;;;;;17.60;99.90;;;;;;4922154;29;19933;-81
2023/06/04 08:45:58;;;;;;;;;;;17.70;99.90;;;;;;4898494;29;19966;-81
2023/06/04 08:48:25;;;;;;;;;;;17.60;99.90;;;;;;4915893;29;19927;-82
2023/06/04 08:50:51;;;;;;;;;;;17.60;99.90;;;;;;4917507;29;19951;-81
2023/06/04 08:53:18;;;;;;;;;;;17.70;99.90;;;;;;4896184;29;20014;-82
2023/06/04 08:55:49;;;;;;;;;;;17.80;99.90;;;;;;4893021;29;19950;-81
2023/06/04 08:58:18;;;;;;;;;;;17.70;99.90;;;;;;4908221;29;19928;-81
2023/06/04 09:00:44;;;;;;;;;;;17.70;99.90;;;;;;4918263;29;19928;-80
2023/06/04 09:03:11;;;;;;;;;;;17.70;99.90;;;;;;4895441;29;19927;-82
2023/06/04 09:05:36;;;;;;;;;;;17.90;99.90;;;;;;4912245;29;19934;-82
2023/06/04 09:08:04;;;;;;;;;;;17.80;99.90;;;;;;4917283;29;19927;-79
2023/06/04 09:10:30;;;;;;;;;;;17.90;99.90;;;;;;4895357;29;19950;-80
2023/06/04 09:12:57;;;;;;;;;;;18.20;99.90;;;;;;4911265;29;20033;-81
2023/06/04 09:15:26;;;;;;;;;;;18.10;99.90;;;;;;4895734;29;19928;-81
2023/06/04 09:17:51;;;;;;;;;;;18.40;99.20;;;;;;4912884;29;19952;-82
2023/06/04 09:20:28;;;;;;;;;;;18.30;98.10;;;;;;4933086;29;19935;-81
2023/06/04 09:22:54;;;;;;;;;;;18.20;99.30;;;;;;4923325;29;19918;-81
2023/06/04 09:25:21;;;;;;;;;;;18.20;97.70;;;;;;4916195;29;19927;-82
2023/06/04 09:27:47;;;;;;;;;;;18.10;99.30;;;;;;4893863;29;19980;-82
2023/06/04 09:30:13;;;;;;;;;;;18.20;98.80;;;;;;4902478;29;19938;-82
2023/06/04 09:32:39;;;;;;;;;;;18.20;99.20;;;;;;4899386;29;19996;-82
2023/06/04 09:35:14;;;;;;;;;;;18.10;98.60;;;;;;4916291;29;19934;-80
2023/06/04 09:37:40;;;;;;;;;;;18.20;98.60;;;;;;4904795;29;19934;-81
2023/06/04 09:40:06;;;;;;;;;;;18.20;98.80;;;;;;4894634;29;19927;-82
2023/06/04 09:42:42;;;;;;;;;;;18.20;99.20;;;;;;4913719;29;20758;-83
2023/06/04 09:45:08;;;;;;;;;;;18.30;99.30;;;;;;4915123;29;19927;-81
2023/06/04 09:47:43;;;;;;;;;;;18.30;98.80;;;;;;4898792;29;19935;-83
2023/06/04 09:50:12;;;;;;;;;;;18.30;98.60;;;;;;4928287;29;19934;-79
2023/06/04 09:52:39;;;;;;;;;;;18.30;99.00;;;;;;4927845;29;19927;-81
2023/06/04 09:55:22;;;;;;;;;;;18.40;99.70;;;;;;4914596;29;19927;-80
2023/06/04 09:57:53;;;;;;;;;;;18.50;99.40;;;;;;4917432;29;19927;-82
2023/06/04 10:00:20;;;;;;;;;;;18.30;97.90;;;;;;4914661;29;19927;-80
2023/06/04 10:02:47;;;;;;;;;;;18.60;99.20;;;;;;4903485;29;19938;-80
2023/06/04 10:05:16;;;;;;;;;;;18.70;99.10;;;;;;4910652;29;19950;-79
2023/06/04 10:07:45;;;;;;;;;;;18.80;99.20;;;;;;4918223;29;19927;-79
2023/06/04 10:10:13;;;;;;;;;;;18.80;98.20;;;;;;4895531;29;20385;-79
2023/06/04 10:12:39;;;;;;;;;;;18.60;98.00;;;;;;4911458;29;20022;-80
2023/06/04 10:15:10;;;;;;;;;;;18.70;98.00;;;;;;4897924;29;19915;-80
2023/06/04 10:17:36;;;;;;;;;;;18.70;98.40;;;;;;4885238;29;19928;-80
2023/06/04 10:20:05;;;;;;;;;;;19.20;98.70;;;;;;4932274;29;20010;-80
2023/06/04 10:22:31;;;;;;;;;;;19.20;98.00;;;;;;4926188;29;19935;-80
2023/06/04 10:24:58;;;;;;;;;;;19.20;97.90;;;;;;4928854;29;19939;-81
2023/06/04 10:27:23;;;;;;;;;;;19.30;98.40;;;;;;4898190;29;19942;-82
2023/06/04 10:29:49;;;;;;;;;;;19.40;97.20;;;;;;4931065;29;19916;-81
2023/06/04 10:32:16;;;;;;;;;;;19.30;98.60;;;;;;4917615;29;19927;-80
2023/06/04 10:34:42;;;;;;;;;;;19.40;96.70;;;;;;4918317;29;19928;-80
2023/06/04 10:37:18;;;;;;;;;;;19.20;96.80;;;;;;4903837;29;19927;-80
2023/06/04 10:39:50;;;;;;;;;;;19.30;96.90;;;;;;4900772;29;19927;-78
2023/06/04 10:42:18;;;;;;;;;;;19.50;96.60;;;;;;4902689;29;19927;-79
2023/06/04 10:44:48;;;;;;;;;;;19.60;96.80;;;;;;4930961;29;19927;-81
2023/06/04 10:47:21;;;;;;;;;;;19.80;97.70;;;;;;4929310;29;19938;-81
2023/06/04 10:49:50;;;;;;;;;;;19.90;97.00;;;;;;4920011;29;19927;-81
2023/06/04 10:52:18;;;;;;;;;;;19.90;96.70;;;;;;4896342;29;19928;-81
2023/06/04 10:54:44;;;;;;;;;;;19.90;96.90;;;;;;4910945;29;19978;-80
2023/06/04 10:57:11;;;;;;;;;;;19.80;96.40;;;;;;4902163;29;19927;-80
2023/06/04 10:59:37;;;;;;;;;;;19.90;97.20;;;;;;4900690;29;19927;-81
2023/06/04 11:02:06;;;;;;;;;;;20.10;96.40;;;;;;4908724;29;20027;-80
2023/06/04 11:04:32;;;;;;;;;;;20.20;96.40;;;;;;4936455;29;19927;-79
2023/06/04 11:07:03;;;;;;;;;;;20.20;95.40;;;;;;4938384;29;19927;-80
2023/06/04 11:09:31;;;;;;;;;;;19.90;96.00;;;;;;4919245;29;19927;-81
2023/06/04 11:12:00;;;;;;;;;;;20.10;95.70;;;;;;4895207;29;19935;-82
2023/06/04 11:14:26;;;;;;;;;;;20.10;95.40;;;;;;4892760;29;19934;-80
2023/06/04 11:16:52;;;;;;;;;;;20.00;96.10;;;;;;4915598;29;19931;-80
2023/06/04 11:19:17;;;;;;;;;;;20.00;96.20;;;;;;4931544;29;19927;-81
2023/06/04 11:21:44;;;;;;;;;;;20.10;95.50;;;;;;4922153;29;20056;-79
2023/06/04 11:24:12;;;;;;;;;;;20.20;95.90;;;;;;4920298;29;19931;-79
2023/06/04 11:26:40;;;;;;;;;;;20.30;95.60;;;;;;4924188;29;19938;-81
2023/06/04 11:29:07;;;;;;;;;;;20.30;95.10;;;;;;4937796;29;19931;-81
2023/06/04 11:31:46;;;;;;;;;;;20.20;95.40;;;;;;4919136;29;19934;-81
2023/06/04 11:34:28;;;;;;;;;;;20.00;95.20;;;;;;4928535;29;19911;-82
2023/06/04 11:36:54;;;;;;;;;;;20.10;96.10;;;;;;4918623;29;19974;-80
2023/06/04 11:39:20;;;;;;;;;;;20.10;95.10;;;;;;4916113;29;19934;-82
2023/06/04 11:41:46;;;;;;;;;;;20.00;95.50;;;;;;4916988;29;19998;-80
2023/06/04 11:44:12;;;;;;;;;;;19.90;94.50;;;;;;4893542;29;20019;-79
2023/06/04 11:46:43;;;;;;;;;;;19.70;94.80;;;;;;4910757;29;19933;-80
2023/06/04 11:49:11;;;;;;;;;;;19.70;95.70;;;;;;4898784;29;20382;-81
2023/06/04 11:51:37;;;;;;;;;;;19.70;95.80;;;;;;4908011;29;19934;-80
2023/06/04 11:54:03;;;;;;;;;;;19.70;96.20;;;;;;4906882;29;19928;-81
2023/06/04 11:56:29;;;;;;;;;;;19.90;95.40;;;;;;4928931;29;20323;-80
2023/06/04 11:58:55;;;;;;;;;;;19.90;95.80;;;;;;4921872;29;19927;-80
2023/06/04 12:01:23;;;;;;;;;;;19.90;95.70;;;;;;4905647;29;19991;-82
2023/06/04 12:03:48;;;;;;;;;;;20.00;95.00;;;;;;4891032;29;19927;-81
2023/06/04 12:06:18;;;;;;;;;;;19.90;95.20;;;;;;4898069;29;19942;-81
2023/06/04 12:08:45;;;;;;;;;;;19.90;95.30;;;;;;4905370;29;20001;-81
2023/06/04 12:11:22;;;;;;;;;;;19.90;95.40;;;;;;4912742;29;20038;-80
2023/06/04 12:13:48;;;;;;;;;;;19.90;94.90;;;;;;4916943;29;20472;-82
2023/06/04 12:16:14;;;;;;;;;;;19.90;95.10;;;;;;4900841;29;19930;-80
2023/06/04 12:18:40;;;;;;;;;;;19.80;95.50;;;;;;4902055;29;19951;-82
2023/06/04 12:21:15;;;;;;;;;;;19.70;95.90;;;;;;4915715;29;19923;-80
2023/06/04 12:23:41;;;;;;;;;;;19.90;95.70;;;;;;4915991;29;19927;-79
2023/06/04 12:26:07;;;;;;;;;;;19.70;95.40;;;;;;4917387;29;20323;-82
2023/06/04 12:28:34;;;;;;;;;;;19.90;96.30;;;;;;4930124;29;19927;-81
2023/06/04 12:31:00;;;;;;;;;;;20.10;96.70;;;;;;4933304;29;19953;-81
2023/06/04 12:33:25;;;;;;;;;;;20.30;95.60;;;;;;4900856;29;19930;-81
2023/06/04 12:35:51;;;;;;;;;;;20.60;95.50;;;;;;4930576;29;19927;-80
2023/06/04 12:38:16;;;;;;;;;;;20.60;95.20;;;;;;4899999;29;19970;-81
2023/06/04 12:40:42;;;;;;;;;;;20.70;94.60;;;;;;4917287;29;19966;-81
2023/06/04 12:43:09;;;;;;;;;;;20.60;95.30;;;;;;4927004;29;19971;-80
2023/06/04 12:45:34;;;;;;;;;;;20.40;94.80;;;;;;4915665;29;19927;-82
2023/06/04 12:48:00;;;;;;;;;;;20.30;95.40;;;;;;4910316;29;19928;-81
2023/06/04 12:50:28;;;;;;;;;;;20.40;95.10;;;;;;4922217;29;20290;-81
2023/06/04 12:52:54;;;;;;;;;;;20.40;94.90;;;;;;4888495;29;19931;-81
2023/06/04 12:55:20;;;;;;;;;;;20.20;94.80;;;;;;4903337;29;20014;-81
2023/06/04 12:57:46;;;;;;;;;;;19.90;95.10;;;;;;4921743;29;19926;-81
2023/06/04 13:00:11;;;;;;;;;;;19.90;96.00;;;;;;4925420;29;19973;-80
2023/06/04 13:02:39;;;;;;;;;;;20.10;95.50;;;;;;4884203;29;19959;-80
2023/06/04 13:05:08;;;;;;;;;;;20.10;95.00;;;;;;4939794;29;20389;-80
2023/06/04 13:07:33;;;;;;;;;;;20.10;95.20;;;;;;4917963;29;19934;-81
2023/06/04 13:10:00;;;;;;;;;;;20.10;96.20;;;;;;4935452;29;19927;-80
2023/06/04 13:12:26;;;;;;;;;;;20.10;95.50;;;;;;4902531;29;19927;-80
2023/06/04 13:14:51;;;;;;;;;;;20.30;95.40;;;;;;4934144;29;19927;-81
2023/06/04 13:17:17;;;;;;;;;;;20.30;94.70;;;;;;4916533;29;19994;-82
2023/06/04 13:19:43;;;;;;;;;;;20.20;96.40;;;;;;4934956;29;19927;-80
2023/06/04 13:22:09;;;;;;;;;;;20.30;95.70;;;;;;4917776;29;19927;-81
2023/06/04 13:24:35;;;;;;;;;;;20.40;96.00;;;;;;4916433;29;19927;-80
2023/06/04 13:27:00;;;;;;;;;;;20.40;95.10;;;;;;4900364;29;19983;-80
2023/06/04 13:29:26;;;;;;;;;;;20.50;95.40;;;;;;4903404;29;19959;-80
2023/06/04 13:31:53;;;;;;;;;;;20.40;94.70;;;;;;4905092;29;19927;-79
2023/06/04 13:34:18;;;;;;;;;;;20.40;95.10;;;;;;4906207;29;19923;-80
2023/06/04 13:36:44;;;;;;;;;;;20.60;95.70;;;;;;4921180;29;19915;-80
2023/06/04 13:39:10;;;;;;;;;;;20.50;94.30;;;;;;4905835;29;19958;-79
2023/06/04 13:41:35;;;;;;;;;;;20.30;94.30;;;;;;4911306;29;19923;-80
2023/06/04 13:44:01;;;;;;;;;;;20.20;95.10;;;;;;4915214;29;19927;-79
2023/06/04 13:46:27;;;;;;;;;;;20.20;95.10;;;;;;4893214;29;20003;-80
2023/06/04 13:48:52;;;;;;;;;;;20.50;96.00;;;;;;4898302;29;19934;-80
2023/06/04 13:51:18;;;;;;;;;;;20.70;96.30;;;;;;4912485;29;19927;-81
2023/06/04 13:53:43;;;;;;;;;;;20.90;95.20;;;;;;4900424;29;19931;-81
2023/06/04 13:56:09;;;;;;;;;;;21.00;94.40;;;;;;4911312;29;20442;-81
2023/06/04 13:58:35;;;;;;;;;;;21.30;94.80;;;;;;4911209;29;19935;-81
2023/06/04 14:01:01;;;;;;;;;;;20.90;94.90;;;;;;4894621;29;19939;-82
2023/06/04 14:03:26;;;;;;;;;;;20.90;94.80;;;;;;4909185;29;19943;-81
2023/06/04 14:05:54;;;;;;;;;;;20.90;95.00;;;;;;4927593;29;19928;-81
2023/06/04 14:08:20;;;;;;;;;;;20.90;94.40;;;;;;4912125;29;19927;-81
2023/06/04 14:10:45;;;;;;;;;;;20.80;94.00;;;;;;4920448;29;19962;-82
2023/06/04 14:13:11;;;;;;;;;;;20.80;94.70;;;;;;4901891;29;19974;-80
2023/06/04 14:15:37;;;;;;;;;;;21.20;94.30;;;;;;4942130;29;19927;-81